Time;durP1;ratioP1;P1;durP2;ratioP2;P2;SDS_P1;SDS_P2;PMS_P1;PMS_P2;Temp;Humidity;BMP_temperature;BMP_pressure;BME280_temperature;BME280_humidity;BME280_pressure;Samples;Min_cycle;Max_cycle;Signal;HPM_P1;HPM_P2
2021/12/25 00:01:20;;;;;;;34.13;24.90;;;10.40;99.90;;;;;;5048960;28;20190;-84
2021/12/25 00:03:51;;;;;;;31.97;23.40;;;10.40;99.90;;;;;;5046927;28;20650;-85
2021/12/25 00:06:18;;;;;;;33.33;22.20;;;10.50;99.90;;;;;;5047887;28;20189;-87
2021/12/25 00:08:44;;;;;;;32.63;23.80;;;10.50;99.90;;;;;;5048325;28;20178;-84
2021/12/25 00:11:10;;;;;;;32.47;24.83;;;10.50;99.90;;;;;;5047029;28;20549;-79
2021/12/25 00:13:37;;;;;;;34.10;24.33;;;10.40;99.90;;;;;;5051381;28;20161;-86
2021/12/25 00:16:07;;;;;;;33.03;24.40;;;10.40;99.90;;;;;;5053097;28;20214;-80
2021/12/25 00:18:34;;;;;;;35.63;24.50;;;10.40;99.90;;;;;;5052590;28;20666;-79
2021/12/25 00:21:00;;;;;;;34.60;25.83;;;10.30;99.90;;;;;;5051823;28;20642;-79
2021/12/25 00:23:26;;;;;;;35.47;26.07;;;10.30;99.90;;;;;;5049476;28;20264;-88
2021/12/25 00:26:00;;;;;;;37.30;25.33;;;10.20;99.90;;;;;;5051429;28;20379;-82
2021/12/25 00:31:22;;;;;;;36.53;26.60;;;10.00;99.90;;;;;;5052395;28;20177;-79
2021/12/25 00:37:10;;;;;;;34.73;25.30;;;9.90;99.90;;;;;;5054425;28;20215;-79
2021/12/25 00:39:39;;;;;;;37.63;25.93;;;9.80;99.90;;;;;;5053132;28;20173;-79
2021/12/25 00:42:07;;;;;;;39.40;27.67;;;9.80;99.90;;;;;;5069825;28;20201;-80
2021/12/25 00:44:33;;;;;;;37.07;26.27;;;9.80;99.90;;;;;;5051082;28;20670;-84
2021/12/25 00:47:00;;;;;;;39.97;27.47;;;9.80;99.90;;;;;;5049899;28;20173;-83
2021/12/25 00:49:26;;;;;;;36.33;26.20;;;9.80;99.90;;;;;;5049279;28;20185;-84
2021/12/25 00:51:52;;;;;;;42.00;27.10;;;9.70;99.90;;;;;;5049235;28;20204;-83
2021/12/25 00:54:17;;;;;;;39.80;27.47;;;9.70;99.90;;;;;;5046093;28;20177;-87
2021/12/25 00:56:43;;;;;;;39.80;28.37;;;9.70;99.90;;;;;;5044228;28;20209;-80
2021/12/25 00:59:10;;;;;;;40.30;28.40;;;9.70;99.90;;;;;;5049624;28;20174;-84
2021/12/25 01:01:37;;;;;;;37.43;27.67;;;9.70;99.90;;;;;;5067855;28;20211;-79
2021/12/25 01:04:04;;;;;;;42.73;28.53;;;9.60;99.90;;;;;;5048752;28;20185;-78
2021/12/25 01:06:30;;;;;;;43.20;28.83;;;9.60;99.90;;;;;;5049580;28;20177;-85
2021/12/25 01:08:55;;;;;;;43.97;28.63;;;9.60;99.90;;;;;;5050716;28;20142;-78
2021/12/25 01:11:24;;;;;;;40.20;27.97;;;9.50;99.90;;;;;;5052149;28;20237;-84
2021/12/25 01:13:58;;;;;;;43.90;28.83;;;9.50;99.90;;;;;;5067679;28;20230;-79
2021/12/25 01:17:02;;;;;;;42.70;27.43;;;9.50;99.90;;;;;;5047999;28;20212;-84
2021/12/25 01:22:14;;;;;;;39.93;26.53;;;9.50;99.90;;;;;;5047782;28;20181;-82
2021/12/25 01:25:02;;;;;;;39.93;26.47;;;9.30;99.90;;;;;;5045395;28;20260;-83
2021/12/25 01:30:09;;;;;;;38.97;26.40;;;9.10;99.90;;;;;;5038604;28;20303;-83
2021/12/25 01:40:23;;;;;;;45.83;30.90;;;9.20;99.90;;;;;;5041207;28;20165;-91
2021/12/25 01:48:16;;;;;;;45.83;29.90;;;9.00;99.90;;;;;;5037474;28;20204;-93
2021/12/25 01:50:47;;;;;;;45.00;31.07;;;9.00;99.90;;;;;;5038303;28;20170;-93
2021/12/25 01:53:16;;;;;;;43.50;29.20;;;9.00;99.90;;;;;;5049729;28;20596;-77
2021/12/25 01:55:46;;;;;;;44.13;28.47;;;9.00;99.90;;;;;;5052865;28;20157;-78
2021/12/25 01:58:15;;;;;;;44.57;29.23;;;9.00;99.90;;;;;;5050252;28;20170;-78
2021/12/25 02:00:48;;;;;;;44.47;29.33;;;8.90;99.90;;;;;;5050518;28;20186;-81
2021/12/25 02:03:17;;;;;;;43.03;28.97;;;8.90;99.90;;;;;;5050577;28;20162;-78
2021/12/25 02:05:44;;;;;;;45.50;30.17;;;8.80;99.90;;;;;;5067772;28;20182;-80
2021/12/25 02:08:10;;;;;;;44.27;29.67;;;8.80;99.90;;;;;;5049723;28;20180;-80
2021/12/25 02:10:36;;;;;;;45.00;30.10;;;8.90;99.90;;;;;;5051145;28;20177;-80
2021/12/25 02:13:03;;;;;;;41.70;29.30;;;8.90;99.90;;;;;;5073824;28;20872;-80
2021/12/25 02:15:32;;;;;;;43.63;30.27;;;8.80;99.90;;;;;;5056777;28;20157;-90
2021/12/25 02:20:34;;;;;;;45.53;30.07;;;8.90;99.90;;;;;;5048930;28;20166;-88
2021/12/25 02:23:04;;;;;;;44.67;31.30;;;8.90;99.90;;;;;;5045614;28;20212;-87
2021/12/25 02:25:35;;;;;;;45.23;31.33;;;8.80;99.90;;;;;;5060974;28;20169;-84
2021/12/25 02:28:03;;;;;;;49.87;31.87;;;8.80;99.90;;;;;;5047152;28;20165;-89
2021/12/25 02:30:32;;;;;;;43.93;29.50;;;8.80;99.90;;;;;;5047826;28;20696;-87
2021/12/25 02:33:03;;;;;;;44.63;28.10;;;8.70;99.90;;;;;;5047382;28;20669;-90
2021/12/25 02:35:33;;;;;;;48.43;31.40;;;8.80;99.90;;;;;;5044222;28;20641;-84
2021/12/25 02:37:58;;;;;;;47.73;30.73;;;8.60;99.90;;;;;;5041031;28;20170;-92
2021/12/25 02:40:24;;;;;;;51.50;34.17;;;8.60;99.90;;;;;;5044930;28;20169;-89
2021/12/25 02:42:53;;;;;;;49.90;32.13;;;8.60;99.90;;;;;;5045062;28;20192;-87
2021/12/25 02:45:21;;;;;;;46.53;31.17;;;8.60;99.90;;;;;;5044914;28;20232;-91
2021/12/25 02:47:56;;;;;;;44.03;29.83;;;8.50;99.90;;;;;;5054547;28;20162;-81
2021/12/25 02:50:26;;;;;;;45.27;30.33;;;8.50;99.90;;;;;;5056455;28;20149;-80
2021/12/25 02:52:58;;;;;;;38.57;28.10;;;8.40;99.90;;;;;;5050526;28;20177;-81
2021/12/25 02:55:27;;;;;;;43.40;28.40;;;8.50;99.90;;;;;;5039676;28;20158;-83
2021/12/25 02:58:06;;;;;;;40.93;27.40;;;8.50;99.90;;;;;;5040692;28;20201;-89
2021/12/25 03:00:44;;;;;;;40.83;27.17;;;8.40;99.90;;;;;;5043207;28;20696;-93
2021/12/25 03:03:14;;;;;;;40.67;26.57;;;8.50;99.90;;;;;;5044834;28;20185;-78
2021/12/25 03:05:41;;;;;;;42.77;27.93;;;8.40;99.90;;;;;;5045940;28;20165;-91
2021/12/25 03:08:16;;;;;;;44.00;29.80;;;8.40;99.90;;;;;;5039560;28;20170;-84
2021/12/25 03:10:42;;;;;;;45.30;30.07;;;8.40;99.90;;;;;;5042443;28;20276;-91
2021/12/25 03:15:56;;;;;;;44.93;27.60;;;8.40;99.90;;;;;;5039372;28;20189;-83
2021/12/25 03:18:34;;;;;;;43.33;27.07;;;8.40;99.90;;;;;;5059292;28;20261;-83
2021/12/25 03:21:03;;;;;;;40.30;25.17;;;8.40;99.90;;;;;;5038526;28;20164;-85
2021/12/25 03:23:32;;;;;;;41.70;26.13;;;8.40;99.90;;;;;;5036643;28;20256;-83
2021/12/25 03:25:59;;;;;;;41.80;25.67;;;8.60;99.90;;;;;;5037627;28;20217;-92
2021/12/25 03:28:32;;;;;;;39.33;23.50;;;8.40;99.90;;;;;;5038255;28;20165;-90
2021/12/25 03:31:04;;;;;;;39.43;24.90;;;8.30;99.90;;;;;;5036083;28;20185;-92
2021/12/25 03:33:30;;;;;;;39.53;25.93;;;8.30;99.90;;;;;;5039522;28;20249;-86
2021/12/25 03:35:57;;;;;;;41.87;24.07;;;8.30;99.90;;;;;;5054787;28;20233;-89
2021/12/25 03:38:23;;;;;;;39.87;25.67;;;8.30;99.90;;;;;;5038993;28;20529;-88
2021/12/25 03:40:51;;;;;;;35.73;22.77;;;8.30;99.90;;;;;;5053924;28;20181;-88
2021/12/25 03:43:18;;;;;;;39.27;24.50;;;8.30;99.90;;;;;;5037916;28;20261;-87
2021/12/25 03:45:45;;;;;;;40.57;24.53;;;8.30;99.90;;;;;;5037510;28;20189;-88
2021/12/25 03:48:56;;;;;;;40.33;25.47;;;8.20;99.90;;;;;;5037778;28;20232;-84
2021/12/25 03:59:04;;;;;;;39.77;22.97;;;8.30;99.90;;;;;;5052359;28;20180;-78
2021/12/25 04:06:35;;;;;;;33.47;22.63;;;8.30;99.90;;;;;;5051378;28;20185;-78
2021/12/25 04:09:08;;;;;;;35.13;23.97;;;8.30;99.90;;;;;;5069163;28;20151;-78
2021/12/25 04:11:35;;;;;;;35.03;23.43;;;8.40;99.90;;;;;;5057602;28;20178;-80
2021/12/25 04:14:01;;;;;;;30.37;20.97;;;8.30;99.90;;;;;;5055247;28;20146;-79
2021/12/25 04:16:27;;;;;;;33.57;22.27;;;8.30;99.90;;;;;;5053303;28;20220;-78
2021/12/25 04:18:54;;;;;;;31.00;22.10;;;8.30;99.90;;;;;;5052028;28;20177;-83
2021/12/25 04:21:23;;;;;;;33.07;21.90;;;8.30;99.90;;;;;;5044820;28;20633;-86
2021/12/25 04:23:50;;;;;;;30.80;21.30;;;8.30;99.90;;;;;;5043504;28;20165;-84
2021/12/25 04:26:16;;;;;;;29.80;21.77;;;8.20;99.90;;;;;;5062051;28;20612;-90
2021/12/25 04:29:02;;;;;;;28.70;20.27;;;8.20;99.90;;;;;;5043499;28;20180;-85
2021/12/25 04:32:06;;;;;;;26.47;19.67;;;8.20;99.90;;;;;;5057953;28;20178;-80
2021/12/25 05:04:23;;;;;;;9.73;7.83;;;7.50;99.90;;;;;;5044095;28;20697;-92
2021/12/25 05:07:06;;;;;;;10.90;9.47;;;7.40;99.90;;;;;;5039688;28;20172;-84
2021/12/25 05:09:37;;;;;;;11.80;9.77;;;7.40;99.90;;;;;;5039592;28;20169;-86
2021/12/25 05:12:07;;;;;;;10.60;8.97;;;7.50;99.90;;;;;;5040286;28;20544;-83
2021/12/25 05:14:34;;;;;;;11.33;8.70;;;7.50;99.90;;;;;;5036543;28;20174;-90
2021/12/25 05:16:59;;;;;;;10.27;7.87;;;7.50;99.90;;;;;;5036133;28;20197;-91
2021/12/25 05:19:25;;;;;;;11.87;9.80;;;7.40;99.90;;;;;;5036056;28;20188;-80
2021/12/25 05:21:51;;;;;;;13.07;10.27;;;7.40;99.90;;;;;;5037128;28;20170;-90
2021/12/25 05:24:17;;;;;;;13.23;10.47;;;7.40;99.90;;;;;;5036937;28;20169;-91
2021/12/25 05:26:43;;;;;;;12.87;10.33;;;7.40;99.90;;;;;;5036365;28;20263;-82
2021/12/25 05:29:09;;;;;;;11.13;8.33;;;7.40;99.90;;;;;;5036157;28;20251;-89
2021/12/25 05:31:36;;;;;;;13.53;10.53;;;7.40;99.90;;;;;;5035135;28;20674;-88
2021/12/25 05:34:04;;;;;;;12.50;9.13;;;7.30;99.90;;;;;;5036388;28;20166;-91
2021/12/25 05:36:30;;;;;;;11.60;9.23;;;7.30;99.90;;;;;;5035660;28;20201;-85
2021/12/25 05:38:59;;;;;;;13.10;10.63;;;7.30;99.90;;;;;;5035959;28;20170;-87
2021/12/25 05:41:26;;;;;;;14.23;10.60;;;7.20;99.90;;;;;;5035536;28;20195;-81
2021/12/25 05:43:52;;;;;;;14.10;11.37;;;7.20;99.90;;;;;;5034214;28;20174;-84
2021/12/25 05:46:18;;;;;;;14.07;10.63;;;7.20;99.90;;;;;;5034984;28;20537;-90
2021/12/25 05:48:45;;;;;;;14.00;10.90;;;7.20;99.90;;;;;;5035930;28;20225;-90
2021/12/25 05:51:13;;;;;;;14.80;10.53;;;7.10;99.90;;;;;;5053710;28;20170;-91
2021/12/25 05:53:38;;;;;;;13.73;10.77;;;7.20;99.90;;;;;;5036282;28;20633;-92
2021/12/25 05:56:05;;;;;;;16.33;12.03;;;7.20;99.90;;;;;;5035428;28;20263;-84
2021/12/25 05:58:30;;;;;;;16.60;11.57;;;7.10;99.90;;;;;;5035113;28;20177;-83
2021/12/25 06:00:56;;;;;;;15.33;11.07;;;7.10;99.90;;;;;;5058824;28;20205;-80
2021/12/25 06:03:21;;;;;;;15.93;12.63;;;7.10;99.90;;;;;;5048904;28;20185;-78
2021/12/25 06:05:48;;;;;;;14.73;11.77;;;7.20;99.90;;;;;;5050110;28;20166;-85
2021/12/25 06:08:15;;;;;;;18.07;13.30;;;7.00;99.90;;;;;;5046331;28;20169;-90
2021/12/25 06:10:42;;;;;;;14.73;10.37;;;7.00;99.90;;;;;;5044589;28;20193;-81
2021/12/25 06:13:16;;;;;;;15.43;10.67;;;7.10;99.90;;;;;;5044756;28;20185;-89
2021/12/25 06:15:42;;;;;;;15.00;10.77;;;6.80;99.90;;;;;;5044104;28;20621;-80
2021/12/25 06:18:11;;;;;;;15.47;10.57;;;6.80;99.90;;;;;;5044543;28;20181;-90
2021/12/25 06:20:38;;;;;;;15.93;11.87;;;6.80;99.90;;;;;;5044811;28;20166;-86
2021/12/25 06:23:04;;;;;;;14.87;11.10;;;6.80;99.90;;;;;;5040706;28;20653;-86
2021/12/25 06:25:30;;;;;;;12.00;8.77;;;6.80;99.90;;;;;;5036030;28;20522;-84
2021/12/25 06:27:56;;;;;;;14.23;10.93;;;6.60;99.90;;;;;;5018406;28;20184;-86
2021/12/25 06:30:22;;;;;;;13.10;10.17;;;6.70;99.90;;;;;;5035709;28;20166;-86
2021/12/25 06:32:48;;;;;;;15.17;9.60;;;6.70;99.90;;;;;;5036036;28;20248;-91
2021/12/25 06:35:15;;;;;;;12.77;9.50;;;6.70;99.90;;;;;;5036181;28;20231;-90
2021/12/25 06:37:44;;;;;;;14.20;10.80;;;6.60;99.90;;;;;;5034774;28;20217;-87
2021/12/25 06:40:11;;;;;;;12.30;9.97;;;6.60;99.90;;;;;;5035482;28;20162;-88
2021/12/25 06:42:37;;;;;;;14.57;11.27;;;6.60;99.90;;;;;;5036291;28;20186;-80
2021/12/25 06:45:06;;;;;;;13.40;10.73;;;6.50;99.90;;;;;;5052095;28;20182;-85
2021/12/25 06:47:32;;;;;;;13.77;9.63;;;6.50;99.90;;;;;;5037284;28;20170;-88
2021/12/25 06:49:57;;;;;;;12.70;9.70;;;6.50;99.90;;;;;;5035605;28;20173;-87
2021/12/25 06:52:32;;;;;;;11.37;9.10;;;6.40;99.90;;;;;;5036261;28;20178;-83
2021/12/25 06:55:14;;;;;;;10.57;7.77;;;6.40;99.90;;;;;;5036926;28;20243;-88
2021/12/25 06:57:52;;;;;;;10.67;8.63;;;6.30;99.90;;;;;;5038340;28;20197;-80
2021/12/25 07:00:34;;;;;;;12.50;9.60;;;6.40;99.90;;;;;;5038605;28;20327;-90
2021/12/25 07:03:20;;;;;;;14.50;10.97;;;6.30;99.90;;;;;;5047837;28;20162;-79
2021/12/25 07:05:46;;;;;;;13.90;10.33;;;6.40;99.90;;;;;;5050959;28;20146;-79
2021/12/25 07:08:21;;;;;;;15.37;10.20;;;6.40;99.90;;;;;;5038681;28;20487;-88
2021/12/25 07:10:48;;;;;;;11.53;8.97;;;6.30;99.90;;;;;;5038734;28;20375;-86
2021/12/25 07:13:19;;;;;;;10.23;8.10;;;6.30;99.90;;;;;;5040306;28;20174;-86
2021/12/25 07:15:46;;;;;;;10.97;7.90;;;6.20;99.90;;;;;;5044172;28;20158;-87
2021/12/25 07:18:17;;;;;;;11.73;7.93;;;6.10;99.90;;;;;;5042237;28;20194;-89
2021/12/25 07:20:48;;;;;;;11.23;9.03;;;6.10;99.90;;;;;;5042000;28;20216;-91
2021/12/25 07:23:15;;;;;;;12.23;8.90;;;6.10;99.90;;;;;;5053970;28;20197;-78
2021/12/25 07:25:41;;;;;;;11.73;8.97;;;6.10;99.90;;;;;;5055282;28;20173;-85
2021/12/25 07:28:07;;;;;;;10.07;7.33;;;6.10;99.90;;;;;;5052901;28;20180;-78
2021/12/25 07:30:33;;;;;;;11.57;8.70;;;6.10;99.90;;;;;;5054881;28;20233;-78
2021/12/25 07:32:59;;;;;;;12.20;9.17;;;6.00;99.90;;;;;;5053865;28;20166;-79
2021/12/25 07:35:27;;;;;;;11.87;9.57;;;5.90;99.90;;;;;;5052513;28;20200;-86
2021/12/25 07:37:55;;;;;;;13.00;9.40;;;5.80;99.90;;;;;;5038796;28;20286;-92
2021/12/25 07:40:21;;;;;;;12.07;9.43;;;5.80;99.90;;;;;;5039677;28;20641;-90
2021/12/25 07:42:47;;;;;;;13.20;9.83;;;5.60;99.90;;;;;;5038748;28;20189;-93
2021/12/25 07:45:14;;;;;;;13.53;10.43;;;5.60;99.90;;;;;;5039621;28;20692;-89
2021/12/25 07:47:46;;;;;;;13.40;9.70;;;5.50;99.90;;;;;;5048814;28;20162;-81
2021/12/25 07:50:13;;;;;;;13.07;10.13;;;5.50;99.90;;;;;;5049337;28;20698;-83
2021/12/25 07:52:42;;;;;;;14.00;11.47;;;5.40;99.90;;;;;;5048301;28;20177;-85
2021/12/25 07:55:11;;;;;;;13.00;8.97;;;5.50;99.90;;;;;;5044938;28;20249;-86
2021/12/25 07:57:39;;;;;;;12.20;9.30;;;5.50;99.90;;;;;;5038714;28;20273;-87
2021/12/25 08:00:09;;;;;;;12.60;9.40;;;5.40;99.90;;;;;;5039869;28;20224;-85
2021/12/25 08:02:35;;;;;;;13.30;10.40;;;5.40;99.90;;;;;;5022983;28;20532;-88
2021/12/25 08:05:01;;;;;;;13.30;10.17;;;5.40;99.90;;;;;;5041305;28;20177;-90
2021/12/25 08:07:27;;;;;;;14.07;10.87;;;5.40;99.90;;;;;;5067012;28;20185;-78
2021/12/25 08:10:03;;;;;;;13.97;11.40;;;5.30;99.90;;;;;;5054157;28;20178;-79
2021/12/25 08:12:30;;;;;;;15.37;11.03;;;5.40;99.90;;;;;;5054638;28;20172;-85
2021/12/25 08:14:56;;;;;;;14.83;11.63;;;5.40;99.90;;;;;;5042190;28;20180;-88
2021/12/25 08:17:21;;;;;;;16.97;12.77;;;5.40;99.90;;;;;;5043212;28;20241;-87
2021/12/25 08:19:47;;;;;;;15.13;11.33;;;5.30;99.90;;;;;;5042680;28;20162;-83
2021/12/25 08:22:13;;;;;;;15.17;12.13;;;5.30;99.90;;;;;;5057900;28;20173;-90
2021/12/25 08:24:38;;;;;;;16.67;12.87;;;5.30;99.90;;;;;;5041660;28;20169;-81
2021/12/25 08:27:05;;;;;;;18.30;14.17;;;5.40;99.90;;;;;;5041457;28;20170;-80
2021/12/25 08:29:31;;;;;;;17.33;12.83;;;5.40;99.90;;;;;;5039607;28;20162;-81
2021/12/25 08:31:58;;;;;;;15.37;12.47;;;5.40;99.90;;;;;;5038317;28;20173;-86
2021/12/25 08:34:24;;;;;;;15.03;10.83;;;5.60;99.90;;;;;;5039289;28;20223;-83
2021/12/25 08:36:51;;;;;;;15.03;11.50;;;5.30;99.90;;;;;;5038057;28;20233;-78
2021/12/25 08:39:18;;;;;;;15.57;11.57;;;5.30;99.90;;;;;;5053291;28;20220;-87
2021/12/25 08:41:44;;;;;;;15.70;12.40;;;5.20;99.90;;;;;;5036400;28;20209;-90
2021/12/25 08:44:31;;;;;;;13.50;10.93;;;5.20;99.90;;;;;;5040684;28;20682;-80
2021/12/25 08:46:59;;;;;;;15.10;11.30;;;5.20;99.90;;;;;;5042575;28;20189;-83
2021/12/25 08:49:28;;;;;;;15.07;11.13;;;5.20;99.90;;;;;;5043264;28;20230;-81
2021/12/25 08:51:56;;;;;;;15.73;12.57;;;5.30;99.90;;;;;;5041838;28;20210;-84
2021/12/25 08:54:22;;;;;;;19.03;14.53;;;5.20;99.90;;;;;;5059517;28;20173;-82
2021/12/25 08:56:48;;;;;;;20.03;14.23;;;5.30;99.90;;;;;;5041603;28;20202;-88
2021/12/25 08:59:14;;;;;;;18.07;14.93;;;5.30;99.90;;;;;;5042291;28;20200;-83
2021/12/25 09:01:40;;;;;;;17.17;13.73;;;5.30;99.90;;;;;;5042841;28;20216;-80
2021/12/25 09:04:06;;;;;;;18.50;15.10;;;5.10;99.90;;;;;;5043842;28;20212;-83
2021/12/25 09:06:33;;;;;;;17.93;14.33;;;5.10;99.90;;;;;;5047242;28;20237;-84
2021/12/25 09:09:00;;;;;;;17.00;13.83;;;5.00;99.90;;;;;;5062773;28;20161;-82
2021/12/25 09:11:34;;;;;;;18.57;15.23;;;4.80;99.90;;;;;;5051029;28;20173;-81
2021/12/25 09:14:06;;;;;;;18.37;14.90;;;4.80;99.90;;;;;;5049986;28;20173;-79
2021/12/25 09:16:35;;;;;;;18.77;15.50;;;4.90;99.90;;;;;;5050109;28;20201;-88
2021/12/25 09:19:05;;;;;;;18.57;14.97;;;4.90;99.90;;;;;;5053930;28;20173;-78
2021/12/25 09:21:31;;;;;;;18.10;14.90;;;4.90;99.90;;;;;;5053535;28;20158;-88
2021/12/25 09:24:00;;;;;;;21.40;18.20;;;4.80;99.90;;;;;;5053948;28;20192;-78
2021/12/25 09:26:27;;;;;;;18.57;15.03;;;4.80;99.90;;;;;;5048758;28;20260;-90
2021/12/25 09:28:53;;;;;;;20.87;17.13;;;4.80;99.90;;;;;;5038791;28;20193;-80
2021/12/25 09:31:20;;;;;;;20.07;16.67;;;4.90;99.90;;;;;;5048146;28;20259;-86
2021/12/25 09:33:46;;;;;;;22.27;17.83;;;4.90;99.90;;;;;;5048043;28;20228;-84
2021/12/25 09:36:12;;;;;;;20.13;15.40;;;4.80;99.90;;;;;;5046803;28;20265;-81
2021/12/25 09:38:38;;;;;;;19.27;15.03;;;4.80;99.90;;;;;;5044855;28;20185;-80
2021/12/25 09:41:05;;;;;;;21.77;16.57;;;4.80;99.90;;;;;;5040471;28;20186;-81
2021/12/25 09:43:34;;;;;;;18.60;15.07;;;4.80;99.90;;;;;;5055144;28;20250;-89
2021/12/25 09:46:03;;;;;;;19.83;15.17;;;4.80;99.90;;;;;;5037558;28;20158;-83
2021/12/25 09:48:45;;;;;;;17.30;13.87;;;5.00;99.90;;;;;;5040774;28;20168;-89
2021/12/25 09:51:14;;;;;;;16.03;12.43;;;4.70;99.90;;;;;;5045779;28;20157;-89
2021/12/25 09:53:42;;;;;;;19.23;15.13;;;4.70;99.90;;;;;;5047819;28;20221;-84
2021/12/25 09:56:08;;;;;;;20.33;16.43;;;4.60;99.90;;;;;;5044032;28;20213;-93
2021/12/25 09:58:34;;;;;;;18.97;15.03;;;4.60;99.90;;;;;;5055368;28;20178;-91
2021/12/25 10:01:01;;;;;;;18.30;15.33;;;4.70;99.90;;;;;;5059281;28;20202;-85
2021/12/25 10:03:45;;;;;;;18.47;14.73;;;4.60;99.90;;;;;;5044028;28;20233;-87
2021/12/25 10:06:37;;;;;;;19.70;15.53;;;4.50;99.90;;;;;;5044227;28;20235;-87
2021/12/25 10:09:24;;;;;;;18.97;15.60;;;4.50;99.90;;;;;;5042894;28;20173;-90
2021/12/25 10:12:11;;;;;;;18.53;14.13;;;4.50;99.90;;;;;;5040476;28;20169;-92
2021/12/25 10:14:39;;;;;;;20.70;16.23;;;4.60;99.90;;;;;;5037363;28;20523;-88
2021/12/25 10:17:19;;;;;;;20.30;16.23;;;4.60;99.90;;;;;;5037421;28;20197;-90
2021/12/25 10:20:08;;;;;;;20.93;17.00;;;4.50;99.90;;;;;;5038428;28;20173;-91
2021/12/25 10:22:54;;;;;;;22.03;16.77;;;4.50;99.90;;;;;;5044109;28;20169;-85
2021/12/25 10:25:19;;;;;;;20.60;17.30;;;4.40;99.90;;;;;;5044603;28;20237;-81
2021/12/25 10:27:57;;;;;;;21.37;17.00;;;4.50;99.90;;;;;;5061215;28;20181;-80
2021/12/25 10:30:23;;;;;;;22.43;17.27;;;4.50;99.90;;;;;;5045637;28;20268;-81
2021/12/25 10:32:50;;;;;;;22.57;17.60;;;4.40;99.90;;;;;;5047570;28;20150;-80
2021/12/25 10:35:27;;;;;;;23.33;17.97;;;4.30;99.90;;;;;;5047526;28;20165;-81
2021/12/25 10:37:53;;;;;;;24.80;18.33;;;4.30;99.90;;;;;;5044330;28;20204;-89
2021/12/25 10:40:34;;;;;;;23.47;18.53;;;4.30;99.90;;;;;;5042770;28;20165;-90
2021/12/25 10:43:03;;;;;;;24.33;18.70;;;4.40;99.90;;;;;;5057700;28;20227;-80
2021/12/25 10:45:33;;;;;;;25.83;20.17;;;4.40;99.90;;;;;;5040910;28;20154;-92
2021/12/25 10:48:10;;;;;;;26.40;20.17;;;4.50;99.90;;;;;;5040577;28;20252;-80
2021/12/25 10:50:48;;;;;;;25.07;19.80;;;4.60;99.90;;;;;;5040645;28;20169;-86
2021/12/25 10:53:25;;;;;;;26.03;19.43;;;4.60;99.90;;;;;;5040138;28;20189;-79
2021/12/25 10:55:51;;;;;;;24.17;17.90;;;4.60;99.90;;;;;;5040694;28;20165;-90
2021/12/25 10:58:39;;;;;;;22.03;16.83;;;4.50;99.90;;;;;;5038344;28;20208;-78
2021/12/25 11:01:07;;;;;;;19.43;14.73;;;4.50;99.90;;;;;;5040022;28;20259;-87
2021/12/25 11:03:36;;;;;;;24.43;18.73;;;4.40;99.90;;;;;;5039297;28;20529;-84
2021/12/25 11:06:18;;;;;;;23.07;17.80;;;4.40;99.90;;;;;;5039134;28;20165;-87
2021/12/25 11:08:45;;;;;;;25.23;19.07;;;4.40;99.90;;;;;;5042613;28;20154;-88
2021/12/25 11:11:15;;;;;;;24.83;20.27;;;4.50;99.90;;;;;;5043292;28;20166;-88
2021/12/25 11:13:43;;;;;;;25.27;19.93;;;4.50;99.90;;;;;;5058907;28;20182;-92
2021/12/25 11:16:12;;;;;;;24.87;19.97;;;4.60;99.90;;;;;;5044727;28;20215;-92
2021/12/25 11:19:06;;;;;;;26.97;19.47;;;4.60;99.90;;;;;;5043621;28;20161;-89
2021/12/25 11:21:36;;;;;;;25.93;20.93;;;4.60;99.90;;;;;;5042663;28;20252;-85
2021/12/25 11:24:20;;;;;;;27.07;21.33;;;4.60;99.90;;;;;;5044298;28;20177;-92
2021/12/25 11:26:58;;;;;;;24.37;19.93;;;4.60;99.90;;;;;;5041186;28;20172;-91
2021/12/25 11:29:26;;;;;;;27.90;21.50;;;4.60;99.90;;;;;;5040266;28;20169;-80
2021/12/25 11:31:54;;;;;;;28.67;19.37;;;4.60;99.90;;;;;;5039258;28;20181;-87
2021/12/25 11:34:22;;;;;;;26.80;21.37;;;4.50;99.90;;;;;;5041332;28;20162;-91
2021/12/25 11:36:51;;;;;;;29.37;22.00;;;4.50;99.90;;;;;;5041009;28;20233;-90
2021/12/25 11:39:28;;;;;;;30.73;22.83;;;4.50;99.90;;;;;;5056044;28;20173;-93
2021/12/25 11:42:00;;;;;;;29.10;21.93;;;4.50;99.90;;;;;;5039216;28;20181;-91
2021/12/25 11:44:42;;;;;;;28.13;21.87;;;4.40;99.90;;;;;;5037519;28;20233;-93
2021/12/25 11:47:29;;;;;;;33.43;23.00;;;4.40;99.90;;;;;;5038872;28;20251;-92
2021/12/25 11:49:58;;;;;;;26.47;19.80;;;4.30;99.90;;;;;;5040060;28;20224;-90
2021/12/25 11:52:30;;;;;;;33.27;24.50;;;4.30;99.90;;;;;;5038841;28;20626;-92
2021/12/25 11:55:21;;;;;;;31.03;24.00;;;4.30;99.90;;;;;;5039568;28;20187;-90
2021/12/25 12:00:49;;;;;;;33.43;26.23;;;4.20;99.90;;;;;;5053064;28;20251;-90
2021/12/25 12:03:39;;;;;;;31.53;23.93;;;4.30;99.90;;;;;;5039820;28;20170;-89
2021/12/25 12:06:06;;;;;;;32.70;24.47;;;4.30;99.90;;;;;;5040536;28;20705;-83
2021/12/25 12:08:54;;;;;;;31.90;24.73;;;4.20;99.90;;;;;;5054379;28;20345;-91
2021/12/25 12:11:27;;;;;;;32.53;24.47;;;4.20;99.90;;;;;;5038721;28;20499;-91
2021/12/25 12:14:25;;;;;;;32.63;24.20;;;4.30;99.90;;;;;;5053545;28;20193;-89
2021/12/25 12:16:59;;;;;;;32.80;24.40;;;4.20;99.90;;;;;;5035138;28;20213;-78
2021/12/25 12:19:38;;;;;;;34.17;25.33;;;4.20;99.90;;;;;;5039297;28;20169;-91
2021/12/25 12:28:19;;;;;;;32.73;23.97;;;4.00;99.90;;;;;;5041238;28;20165;-83
2021/12/25 12:30:50;;;;;;;33.53;23.77;;;3.90;99.90;;;;;;5042855;28;20224;-91
2021/12/25 12:33:17;;;;;;;32.53;23.33;;;4.00;99.90;;;;;;5050001;28;20180;-90
2021/12/25 12:35:53;;;;;;;30.87;21.73;;;4.00;99.90;;;;;;5050760;28;20145;-84
2021/12/25 12:38:37;;;;;;;32.93;23.40;;;4.00;99.90;;;;;;5051877;28;20199;-79
2021/12/25 12:41:30;;;;;;;33.07;23.50;;;3.90;99.90;;;;;;5052121;28;20626;-90
2021/12/25 12:44:15;;;;;;;34.30;24.20;;;3.80;99.90;;;;;;5054525;28;20208;-87
2021/12/25 12:46:53;;;;;;;30.77;20.70;;;3.80;99.90;;;;;;5039311;28;20169;-92
2021/12/25 12:49:53;;;;;;;36.43;26.07;;;3.80;99.90;;;;;;5039232;28;20149;-89
2021/12/25 12:52:21;;;;;;;38.43;28.63;;;3.80;99.90;;;;;;5039683;28;20572;-89
2021/12/25 12:54:59;;;;;;;33.97;24.50;;;3.80;99.90;;;;;;5043407;28;20212;-79
2021/12/25 12:57:39;;;;;;;37.90;27.87;;;3.80;99.90;;;;;;5053826;28;20216;-85
2021/12/25 13:00:27;;;;;;;37.03;26.90;;;3.80;99.90;;;;;;5070003;28;20197;-79
2021/12/25 13:02:59;;;;;;;37.77;28.73;;;3.90;99.90;;;;;;5053178;28;20161;-80
2021/12/25 13:05:30;;;;;;;36.87;26.90;;;3.90;99.90;;;;;;5053402;28;20225;-78
2021/12/25 13:07:58;;;;;;;39.53;29.27;;;3.90;99.90;;;;;;5051665;28;20174;-78
2021/12/25 13:10:47;;;;;;;37.00;26.70;;;3.80;99.90;;;;;;5051716;28;20197;-78
2021/12/25 13:13:24;;;;;;;39.00;28.27;;;3.80;99.90;;;;;;5052718;28;20365;-81
2021/12/25 13:15:57;;;;;;;42.73;31.03;;;3.80;99.90;;;;;;5063085;28;20215;-77
2021/12/25 13:18:36;;;;;;;39.20;25.37;;;3.70;99.90;;;;;;5049526;28;20275;-78
2021/12/25 13:21:08;;;;;;;42.00;29.97;;;3.60;99.90;;;;;;5051626;28;20209;-79
2021/12/25 13:23:48;;;;;;;41.73;30.40;;;3.50;99.90;;;;;;5050043;28;20180;-79
2021/12/25 13:26:16;;;;;;;44.20;29.10;;;3.50;99.90;;;;;;5049615;28;20170;-79
2021/12/25 13:28:43;;;;;;;42.30;31.33;;;3.60;99.90;;;;;;5046890;28;20174;-83
2021/12/25 13:31:18;;;;;;;43.53;32.17;;;3.50;99.90;;;;;;5047470;28;20533;-82
2021/12/25 13:33:59;;;;;;;45.00;32.87;;;3.60;99.90;;;;;;5046924;28;20169;-79
2021/12/25 13:36:30;;;;;;;44.07;30.83;;;3.60;99.90;;;;;;5048244;28;20638;-81
2021/12/25 13:39:00;;;;;;;47.13;33.87;;;3.60;99.90;;;;;;5046991;28;20192;-80
2021/12/25 13:41:52;;;;;;;50.73;36.73;;;3.70;99.90;;;;;;5048445;28;20207;-83
2021/12/25 13:44:33;;;;;;;48.27;36.33;;;3.70;99.90;;;;;;5059045;28;20177;-79
2021/12/25 13:47:03;;;;;;;45.63;32.17;;;3.70;99.90;;;;;;5048119;28;20165;-79
2021/12/25 13:49:42;;;;;;;43.00;27.93;;;3.60;99.90;;;;;;5045760;28;20157;-82
2021/12/25 13:52:20;;;;;;;44.47;31.87;;;3.50;99.90;;;;;;5047882;28;20189;-82
2021/12/25 13:54:55;;;;;;;44.93;32.87;;;3.50;99.90;;;;;;5041995;28;20201;-86
2021/12/25 13:57:27;;;;;;;43.37;31.60;;;3.50;99.90;;;;;;5040832;28;20296;-86
2021/12/25 14:00:02;;;;;;;45.20;31.53;;;3.50;99.90;;;;;;5057840;28;20226;-87
2021/12/25 14:02:39;;;;;;;43.17;31.43;;;3.50;99.90;;;;;;5043532;28;20208;-80
2021/12/25 14:05:08;;;;;;;47.53;32.90;;;3.40;99.90;;;;;;5039856;28;20183;-89
2021/12/25 14:07:38;;;;;;;45.13;31.87;;;3.50;99.90;;;;;;5039682;28;20161;-87
2021/12/25 14:10:42;;;;;;;46.40;31.33;;;3.50;99.90;;;;;;5039628;28;20158;-84
2021/12/25 14:13:18;;;;;;;44.47;29.83;;;3.40;99.90;;;;;;5059038;28;20610;-90
2021/12/25 14:15:53;;;;;;;45.00;31.23;;;3.30;99.90;;;;;;5037510;28;20181;-91
2021/12/25 14:18:30;;;;;;;43.83;31.17;;;3.50;99.90;;;;;;5038902;28;20204;-91
2021/12/25 14:21:34;;;;;;;44.60;30.50;;;3.50;99.90;;;;;;5041452;28;20168;-92